Time;durP1;ratioP1;P1;durP2;ratioP2;P2;SDS_P1;SDS_P2;PMS_P1;PMS_P2;Temp;Humidity;BMP_temperature;BMP_pressure;BME280_temperature;BME280_humidity;BME280_pressure;Samples;Min_cycle;Max_cycle;Signal;HPM_P1;HPM_P2
2023/01/08 00:02:20;;;;;;;1.23;1.10;;;;;;;12.30;89.26;99579.66;8355699;28;20452;-53
2023/01/08 00:06:20;;;;;;;1.40;0.90;;;;;;;12.29;89.83;99567.13;8356028;28;20037;-51
2023/01/08 00:10:21;;;;;;;1.15;0.80;;;;;;;12.17;90.63;99558.50;8355247;28;20541;-51
2023/01/08 00:14:21;;;;;;;2.50;0.98;;;;;;;12.16;90.57;99555.97;8354868;28;20040;-51
2023/01/08 00:18:23;;;;;;;1.98;1.10;;;;;;;12.15;90.54;99562.41;8356329;28;20269;-50
2023/01/08 00:22:24;;;;;;;1.10;0.75;;;;;;;12.17;90.64;99546.84;8343463;28;20045;-52
2023/01/08 00:26:24;;;;;;;2.90;1.13;;;;;;;12.17;90.41;99546.84;8354661;28;20052;-53
2023/01/08 00:30:25;;;;;;;2.80;1.27;;;;;;;12.29;89.47;99542.75;8355072;28;20079;-53
2023/01/08 00:34:25;;;;;;;2.42;1.70;;;;;;;12.43;89.12;99547.41;8355076;28;20048;-56
2023/01/08 00:38:27;;;;;;;3.10;1.70;;;;;;;12.40;89.66;99531.50;8355422;28;20060;-56
2023/01/08 00:42:28;;;;;;;3.42;1.65;;;;;;;12.53;88.45;99538.03;8352743;28;20101;-58
2023/01/08 00:46:28;;;;;;;2.53;1.50;;;;;;;12.64;87.71;99543.09;8355343;28;20079;-56
2023/01/08 00:50:29;;;;;;;3.83;1.88;;;;;;;12.60;87.78;99538.19;8355218;28;20045;-55
2023/01/08 00:54:29;;;;;;;3.42;1.52;;;;;;;12.60;87.95;99539.00;8354731;28;20095;-57
2023/01/08 00:58:30;;;;;;;2.83;1.63;;;;;;;12.59;88.02;99547.38;8354083;28;20029;-58
2023/01/08 01:02:30;;;;;;;4.97;2.22;;;;;;;12.48;88.99;99528.75;8354589;28;20382;-58
2023/01/08 01:06:31;;;;;;;3.50;2.10;;;;;;;12.42;89.53;99524.03;8352381;28;20109;-59
2023/01/08 01:10:31;;;;;;;4.75;2.00;;;;;;;12.39;89.51;99527.97;8353844;28;20041;-58
2023/01/08 01:14:32;;;;;;;4.88;2.00;;;;;;;12.31;89.74;99521.72;8354421;28;20098;-56
2023/01/08 01:18:32;;;;;;;3.15;2.10;;;;;;;12.30;90.00;99520.88;8323117;28;20037;-59
2023/01/08 01:22:33;;;;;;;4.63;1.85;;;;;;;12.24;90.83;99520.72;8334281;28;20040;-58
2023/01/08 01:26:33;;;;;;;6.70;2.35;;;;;;;12.29;90.35;99523.78;8353251;28;20473;-58
2023/01/08 01:30:34;;;;;;;5.40;1.85;;;;;;;12.28;90.45;99522.91;8354178;28;20493;-58
2023/01/08 01:34:34;;;;;;;3.35;2.03;;;;;;;12.30;90.38;99523.59;8347299;28;20480;-59
2023/01/08 01:38:35;;;;;;;3.65;1.88;;;;;;;12.24;90.50;99509.91;8348624;28;20047;-54
2023/01/08 01:42:39;;;;;;;6.57;4.47;;;;;;;12.14;91.55;99509.25;8352172;28;20029;-52
2023/01/08 01:46:39;;;;;;;5.70;3.15;;;;;;;12.17;91.03;99515.16;8351854;28;20116;-53
2023/01/08 01:50:46;;;;;;;13.18;5.40;;;;;;;12.19;90.89;99513.13;8352118;28;20045;-51
2023/01/08 01:54:48;;;;;;;6.43;3.28;;;;;;;12.05;92.83;99494.91;8350959;28;20058;-53
2023/01/08 01:58:49;;;;;;;5.05;3.33;;;;;;;11.86;94.88;99490.72;8354425;28;20114;-58
2023/01/08 02:02:49;;;;;;;7.28;3.53;;;;;;;11.72;96.93;99502.25;8356527;28;20025;-59
2023/01/08 02:07:02;;;;;;;4.65;3.22;;;;;;;11.64;98.21;99499.59;8356475;28;20449;-58
2023/01/08 02:11:10;;;;;;;3.85;2.88;;;;;;;11.53;100.00;99494.47;8355697;28;20494;-59
2023/01/08 02:15:25;;;;;;;4.72;3.30;;;;;;;11.41;100.00;99489.63;8352704;28;20037;-58
2023/01/08 02:19:51;;;;;;;5.82;3.08;;;;;;;11.32;100.00;99480.63;8355444;28;20049;-59
2023/01/08 02:24:01;;;;;;;4.25;3.05;;;;;;;11.34;100.00;99484.03;8356134;28;20040;-58
2023/01/08 02:28:07;;;;;;;5.70;3.78;;;;;;;11.41;100.00;99468.78;8351962;28;20074;-57
2023/01/08 02:32:08;;;;;;;4.72;3.03;;;;;;;11.41;100.00;99462.56;8341650;28;20578;-53
2023/01/08 02:36:23;;;;;;;5.68;2.80;;;;;;;11.46;100.00;99454.75;8354108;28;20566;-52
2023/01/08 02:40:31;;;;;;;1.67;1.55;;;;;;;11.55;100.00;99459.13;8349107;28;20068;-52
2023/01/08 02:44:50;;;;;;;2.38;1.55;;;;;;;11.55;100.00;99438.34;8356928;28;20115;-52
2023/01/08 02:48:56;;;;;;;2.13;1.30;;;;;;;11.67;99.06;99436.13;8348650;28;20033;-53
2023/01/08 02:53:22;;;;;;;2.70;1.20;;;;;;;11.71;98.66;99437.44;8355171;28;20044;-53
2023/01/08 02:57:22;;;;;;;3.42;1.05;;;;;;;11.79;97.31;99435.59;8355516;28;20118;-52
2023/01/08 03:01:24;;;;;;;1.75;0.90;;;;;;;11.79;97.71;99430.16;8356616;28;20037;-54
2023/01/08 03:05:27;;;;;;;1.67;0.98;;;;;;;11.88;96.52;99429.13;8371675;28;20049;-52
2023/01/08 03:09:28;;;;;;;2.50;1.13;;;;;;;11.86;96.41;99425.72;8356188;28;20045;-53
2023/01/08 03:13:38;;;;;;;1.40;0.80;;;;;;;11.89;96.24;99419.13;8356367;28;20044;-54
2023/01/08 03:17:43;;;;;;;1.02;0.80;;;;;;;11.89;96.04;99414.56;8354622;28;20700;-56
2023/01/08 03:21:45;;;;;;;1.00;0.82;;;;;;;11.89;96.26;99422.69;8356004;28;20036;-56
2023/01/08 03:25:47;;;;;;;1.77;0.80;;;;;;;11.92;95.82;99423.34;8355230;28;20087;-55
2023/01/08 03:29:52;;;;;;;1.13;0.63;;;;;;;11.96;94.86;99419.25;8355276;28;20032;-56
2023/01/08 03:33:53;;;;;;;1.60;0.60;;;;;;;11.96;94.60;99413.84;8356910;28;20040;-56
2023/01/08 03:38:03;;;;;;;0.93;0.73;;;;;;;11.90;94.89;99410.00;8342484;28;20550;-56
2023/01/08 03:42:08;;;;;;;0.50;0.50;;;;;;;11.86;94.72;99409.47;8307162;28;20053;-55
2023/01/08 03:46:14;;;;;;;0.80;0.50;;;;;;;11.96;93.13;99408.44;8326172;28;20095;-58
2023/01/08 03:50:21;;;;;;;0.88;0.50;;;;;;;12.05;90.93;99404.66;8328396;28;20299;-54
2023/01/08 03:54:28;;;;;;;0.60;0.40;;;;;;;12.09;90.34;99408.69;8346893;28;20847;-55
2023/01/08 03:58:29;;;;;;;2.58;0.60;;;;;;;12.20;89.01;99395.59;8360075;28;20037;-54
2023/01/08 04:02:29;;;;;;;0.60;0.40;;;;;;;12.20;89.02;99392.06;8361103;28;20540;-56
2023/01/08 04:06:30;;;;;;;1.15;0.50;;;;;;;12.07;90.02;99389.09;8359694;28;20037;-57
2023/01/08 04:10:30;;;;;;;0.50;0.50;;;;;;;12.11;89.46;99385.00;8360822;28;20591;-58
2023/01/08 04:14:31;;;;;;;1.50;0.40;;;;;;;12.04;90.37;99386.72;8359920;28;20554;-56
2023/01/08 04:18:31;;;;;;;0.47;0.40;;;;;;;12.13;88.47;99377.53;8359860;28;20154;-55
2023/01/08 04:22:31;;;;;;;0.52;0.40;;;;;;;12.10;88.96;99383.31;8360330;28;20041;-58
2023/01/08 04:26:32;;;;;;;1.02;0.40;;;;;;;12.03;89.22;99377.75;8360357;28;20045;-57
2023/01/08 04:30:32;;;;;;;0.70;0.32;;;;;;;11.99;89.74;99381.84;8360530;28;20199;-56
2023/01/08 04:34:33;;;;;;;0.80;0.60;;;;;;;11.94;90.03;99384.22;8360005;28;20037;-59
2023/01/08 04:38:33;;;;;;;2.17;0.40;;;;;;;11.99;89.16;99375.56;8374067;28;20043;-58
2023/01/08 04:42:34;;;;;;;0.70;0.38;;;;;;;12.04;88.46;99373.19;8358978;28;20033;-58
2023/01/08 04:46:35;;;;;;;1.15;0.40;;;;;;;12.04;88.82;99367.78;8359973;28;20072;-59
2023/01/08 04:50:36;;;;;;;0.20;0.20;;;;;;;12.05;87.91;99375.72;8359655;28;20451;-57
2023/01/08 04:54:36;;;;;;;0.40;0.30;;;;;;;12.04;88.00;99367.78;8357105;28;20109;-55
2023/01/08 04:58:37;;;;;;;0.77;0.30;;;;;;;12.07;87.88;99356.59;8358987;28;20083;-58
2023/01/08 05:02:38;;;;;;;1.10;0.32;;;;;;;11.97;88.60;99347.81;8358924;28;20506;-58
2023/01/08 05:06:39;;;;;;;1.58;0.40;;;;;;;11.96;88.94;99360.53;8359479;28;20405;-54
2023/01/08 05:10:39;;;;;;;2.28;0.40;;;;;;;11.96;89.13;99362.38;8359490;28;20041;-53
2023/01/08 05:14:40;;;;;;;0.68;0.40;;;;;;;11.89;89.60;99354.97;8358857;28;20098;-54
2023/01/08 05:18:40;;;;;;;1.05;0.40;;;;;;;11.75;90.58;99342.16;8359163;28;20045;-56
2023/01/08 05:22:40;;;;;;;1.08;0.40;;;;;;;11.65;90.86;99341.53;8359467;28;20064;-57
2023/01/08 05:26:41;;;;;;;2.05;0.30;;;;;;;11.63;90.55;99338.19;8357804;28;20052;-55
2023/01/08 05:30:42;;;;;;;0.32;0.30;;;;;;;11.72;88.98;99347.94;8359025;28;20098;-56
2023/01/08 05:34:43;;;;;;;0.98;0.30;;;;;;;11.68;88.64;99346.59;8358748;28;20100;-56
2023/01/08 05:38:44;;;;;;;0.57;0.40;;;;;;;11.64;88.60;99333.59;8358078;28;20144;-57
2023/01/08 05:42:44;;;;;;;1.40;0.75;;;;;;;11.61;88.77;99340.19;8374070;28;20470;-57
2023/01/08 05:46:44;;;;;;;0.85;0.52;;;;;;;11.58;88.90;99328.84;8357572;28;20517;-56
2023/01/08 05:50:47;;;;;;;0.45;0.40;;;;;;;11.49;89.25;99325.34;8358295;28;20119;-54
2023/01/08 05:54:48;;;;;;;0.65;0.50;;;;;;;11.60;88.13;99333.09;8355482;28;20032;-57
2023/01/08 05:58:48;;;;;;;3.17;0.47;;;;;;;11.57;87.67;99344.28;8334148;28;20510;-56
2023/01/08 06:02:49;;;;;;;0.50;0.30;;;;;;;11.52;87.80;99340.38;8355606;28;20036;-57
2023/01/08 06:06:49;;;;;;;2.70;0.40;;;;;;;11.63;87.03;99335.50;8354198;28;20041;-56
2023/01/08 06:10:50;;;;;;;0.60;0.40;;;;;;;11.56;87.52;99337.16;8357724;28;20505;-56
2023/01/08 06:14:50;;;;;;;2.13;0.55;;;;;;;11.48;88.23;99345.31;8357433;28;20041;-55
2023/01/08 06:18:51;;;;;;;1.65;0.68;;;;;;;11.50;87.88;99354.09;8356911;28;20040;-53
2023/01/08 06:22:52;;;;;;;3.53;1.05;;;;;;;11.50;88.19;99348.69;8357844;28;20039;-53
2023/01/08 06:26:53;;;;;;;2.20;1.33;;;;;;;11.50;88.34;99351.38;8355897;28;20554;-52
2023/01/08 06:30:55;;;;;;;2.35;0.85;;;;;;;11.54;88.08;99355.44;8368477;28;20374;-53
2023/01/08 06:34:56;;;;;;;1.98;0.65;;;;;;;11.50;88.77;99359.50;8355621;28;20049;-53
2023/01/08 06:38:56;;;;;;;1.80;0.68;;;;;;;11.49;88.90;99363.25;8356301;28;20041;-53
2023/01/08 06:43:01;;;;;;;1.48;0.50;;;;;;;11.55;88.80;99405.84;8356760;28;20457;-54
2023/01/08 06:47:02;;;;;;;1.38;0.75;;;;;;;11.20;89.91;99408.97;8356724;28;20051;-51
2023/01/08 06:51:03;;;;;;;2.95;0.70;;;;;;;10.79;89.52;99407.31;8354983;28;20037;-54
2023/01/08 06:55:04;;;;;;;2.97;0.70;;;;;;;10.54;92.64;99413.72;8353406;28;20044;-54
2023/01/08 06:59:05;;;;;;;3.63;0.82;;;;;;;10.41;93.52;99407.97;8353469;28;20087;-51
2023/01/08 07:03:05;;;;;;;5.47;0.95;;;;;;;10.37;93.50;99403.91;8356629;28;20124;-54
2023/01/08 07:07:06;;;;;;;4.47;0.40;;;;;;;10.40;93.46;99406.25;8355298;28;20036;-52
2023/01/08 07:11:07;;;;;;;2.10;0.65;;;;;;;10.45;92.25;99406.63;8360747;28;20033;-53
2023/01/08 07:15:08;;;;;;;6.07;1.00;;;;;;;10.53;92.28;99405.78;8362497;28;20079;-53
2023/01/08 07:19:08;;;;;;;5.55;0.75;;;;;;;10.64;91.51;99400.06;8362422;28;20409;-53
2023/01/08 07:23:10;;;;;;;3.70;1.00;;;;;;;10.77;90.62;99398.53;8362296;28;20045;-53
2023/01/08 07:27:10;;;;;;;6.00;0.68;;;;;;;10.87;89.41;99401.91;8359799;28;20648;-53
2023/01/08 07:31:11;;;;;;;4.10;1.05;;;;;;;10.98;88.49;99409.66;8360818;28;20406;-52
2023/01/08 07:35:11;;;;;;;5.85;1.30;;;;;;;11.03;87.31;99406.44;8357319;28;20048;-54
2023/01/08 07:39:12;;;;;;;5.15;1.23;;;;;;;10.97;87.64;99402.56;8360607;28;20136;-53
2023/01/08 07:43:13;;;;;;;5.82;0.80;;;;;;;10.95;87.82;99392.97;8330378;28;20090;-53
2023/01/08 07:47:13;;;;;;;4.55;0.70;;;;;;;10.93;87.32;99398.53;8339882;28;20049;-53
2023/01/08 07:51:13;;;;;;;9.35;1.13;;;;;;;10.86;88.47;99392.09;8338939;28;20048;-52
2023/01/08 07:55:14;;;;;;;4.72;1.05;;;;;;;10.87;87.90;99388.41;8360116;28;20037;-52
2023/01/08 07:59:14;;;;;;;9.20;1.00;;;;;;;10.87;88.38;99392.94;8360258;28;20047;-53
2023/01/08 08:03:15;;;;;;;7.78;1.10;;;;;;;10.86;87.88;99396.69;8360691;28;20052;-53
2023/01/08 08:07:15;;;;;;;8.32;1.02;;;;;;;10.85;87.95;99395.81;8361073;28;20052;-56
2023/01/08 08:11:16;;;;;;;9.43;1.08;;;;;;;10.86;87.71;99391.28;8360420;28;20501;-55
2023/01/08 08:15:16;;;;;;;6.68;1.15;;;;;;;10.83;87.91;99387.03;8340315;28;20041;-57
2023/01/08 08:19:16;;;;;;;8.85;1.52;;;;;;;10.78;87.57;99384.00;8326595;28;20041;-57
2023/01/08 08:23:17;;;;;;;7.65;1.42;;;;;;;10.74;88.34;99382.63;8339066;28;20099;-57
2023/01/08 08:27:17;;;;;;;11.45;1.73;;;;;;;10.67;88.46;99383.50;8337468;28;20132;-55
2023/01/08 08:31:18;;;;;;;5.72;0.70;;;;;;;10.61;87.67;99374.19;8358383;28;20096;-52
2023/01/08 08:35:19;;;;;;;4.22;0.70;;;;;;;10.52;88.54;99367.09;8359499;28;20045;-54
2023/01/08 08:39:19;;;;;;;8.55;1.27;;;;;;;10.52;88.71;99369.81;8342210;28;20040;-51
2023/01/08 08:43:20;;;;;;;4.53;0.75;;;;;;;10.50;88.43;99358.34;8355598;28;20045;-52
2023/01/08 08:47:20;;;;;;;3.88;0.75;;;;;;;10.36;89.79;99350.88;8349532;28;20131;-52
2023/01/08 08:51:20;;;;;;;3.40;0.50;;;;;;;10.35;89.23;99349.22;8362764;28;20048;-51
2023/01/08 08:55:21;;;;;;;3.95;1.05;;;;;;;10.46;87.51;99351.56;8345491;28;20033;-50
2023/01/08 08:59:21;;;;;;;3.15;0.40;;;;;;;11.08;85.02;99336.47;8338759;28;20128;-52
2023/01/08 09:03:22;;;;;;;7.00;0.65;;;;;;;10.94;85.11;99335.31;8357364;28;20053;-53
2023/01/08 09:07:22;;;;;;;2.95;0.80;;;;;;;10.68;85.96;99337.41;8343644;28;20134;-58
2023/01/08 09:11:22;;;;;;;3.50;2.47;;;;;;;10.59;87.50;99351.06;8337265;28;20048;-58
2023/01/08 09:15:23;;;;;;;8.75;3.40;;;;;;;10.56;89.47;99340.59;8350274;28;20076;-59
2023/01/08 09:19:24;;;;;;;1.95;0.60;;;;;;;10.81;88.70;99351.22;8349414;28;20360;-58
2023/01/08 09:23:24;;;;;;;3.83;0.82;;;;;;;11.62;87.05;99336.47;8339419;28;20115;-60
2023/01/08 09:27:24;;;;;;;2.75;0.77;;;;;;;13.39;78.20;99340.53;8339034;28;20045;-52
2023/01/08 09:31:25;;;;;;;1.65;0.50;;;;;;;14.76;72.59;99332.09;8335493;28;20040;-57
2023/01/08 09:35:26;;;;;;;0.73;0.40;;;;;;;15.50;70.23;99334.16;8335098;28;20054;-56
2023/01/08 09:39:26;;;;;;;2.95;0.40;;;;;;;15.74;68.93;99327.38;8336612;28;20057;-55
2023/01/08 09:43:30;;;;;;;1.85;0.40;;;;;;;15.50;69.60;99334.16;8334307;28;20066;-56
2023/01/08 09:47:37;;;;;;;1.50;0.40;;;;;;;15.87;69.03;99327.44;8340490;28;20044;-56
2023/01/08 09:51:38;;;;;;;1.27;0.40;;;;;;;16.00;67.89;99323.91;8346126;28;20060;-56
2023/01/08 09:55:39;;;;;;;3.20;0.70;;;;;;;15.91;68.11;99312.34;8343262;28;20038;-55
2023/01/08 09:59:40;;;;;;;3.08;0.80;;;;;;;16.08;67.30;99312.81;8353402;28;20045;-54
2023/01/08 10:03:44;;;;;;;6.38;1.27;;;;;;;16.43;66.30;99308.91;8369176;28;20063;-54
2023/01/08 10:07:46;;;;;;;3.00;0.70;;;;;;;16.64;66.21;99297.84;8322212;28;20041;-55
2023/01/08 10:11:48;;;;;;;2.90;0.77;;;;;;;16.88;65.14;99299.97;8322274;28;20405;-55
2023/01/08 10:15:51;;;;;;;4.00;0.75;;;;;;;16.28;65.37;99284.56;8323016;28;20041;-54
2023/01/08 10:19:51;;;;;;;3.05;0.60;;;;;;;14.03;72.40;99285.31;8353260;28;20033;-54
2023/01/08 10:23:52;;;;;;;5.13;0.98;;;;;;;13.44;75.57;99291.94;8349857;28;20047;-54
2023/01/08 10:27:58;;;;;;;4.03;0.80;;;;;;;13.41;76.49;99271.44;8324943;28;20041;-56
2023/01/08 10:32:07;;;;;;;2.42;0.70;;;;;;;13.68;77.41;99262.59;8330471;28;20415;-56
2023/01/08 10:36:12;;;;;;;2.65;0.60;;;;;;;15.19;71.76;99252.03;8336987;28;20048;-57
2023/01/08 10:40:36;;;;;;;5.18;0.80;;;;;;;14.62;71.71;99237.84;8334436;28;20049;-54
2023/01/08 10:44:37;;;;;;;3.30;0.70;;;;;;;13.98;74.58;99240.75;8322935;28;20042;-52
2023/01/08 10:48:46;;;;;;;3.95;0.70;;;;;;;13.37;77.67;99224.00;8320315;28;20114;-55
2023/01/08 10:52:56;;;;;;;2.20;0.70;;;;;;;15.01;70.73;99216.31;8324457;28;20045;-57
2023/01/08 10:56:57;;;;;;;3.45;0.60;;;;;;;16.28;65.14;99212.81;8326985;28;20493;-58
2023/01/08 11:01:27;;;;;;;3.33;0.80;;;;;;;16.14;65.49;99214.69;8324072;28;20448;-58
2023/01/08 11:05:30;;;;;;;1.98;0.60;;;;;;;15.20;68.21;99212.03;8334710;28;20049;-57
2023/01/08 11:09:39;;;;;;;2.03;0.70;;;;;;;14.65;70.97;99207.53;8320743;28;20038;-58
2023/01/08 11:13:40;;;;;;;2.70;0.40;;;;;;;14.26;71.13;99201.75;8333353;28;20092;-57
2023/01/08 11:17:40;;;;;;;0.63;0.30;;;;;;;13.93;72.56;99200.59;8334311;28;20045;-57
2023/01/08 11:21:41;;;;;;;3.13;0.60;;;;;;;13.74;74.02;99193.94;8334408;28;20037;-56
2023/01/08 11:25:49;;;;;;;3.00;1.00;;;;;;;13.72;74.25;99195.13;8349689;28;20039;-55
2023/01/08 11:30:20;;;;;;;2.50;0.77;;;;;;;13.73;74.46;99186.78;8341279;28;20040;-56
2023/01/08 11:34:55;;;;;;;1.98;0.68;;;;;;;13.65;75.05;99188.78;8347707;28;20041;-57
2023/01/08 11:38:56;;;;;;;1.38;0.28;;;;;;;13.95;74.38;99184.09;8347540;28;20056;-54
2023/01/08 11:48:07;;;;;;;0.75;0.22;;;;;;;16.92;64.59;99172.88;8312187;28;20405;-53
2023/01/08 11:52:47;;;;;;;0.35;0.35;;;;;;;15.99;65.99;99172.28;8311626;28;20045;-51
2023/01/08 12:01:34;;;;;;;2.75;0.57;;;;;;;13.82;72.61;99154.94;8273651;27;20371;-53
2023/01/08 12:06:01;;;;;;;0.40;0.40;;;;;;;13.59;73.34;99146.13;8272983;28;20534;-57
2023/01/08 12:10:29;;;;;;;0.85;0.60;;;;;;;13.45;74.93;99141.59;8249102;28;20505;-56
2023/01/08 12:14:46;;;;;;;0.20;0.20;;;;;;;13.24;76.80;99126.09;8255278;28;20153;-56
2023/01/08 12:19:26;;;;;;;6.57;0.65;;;;;;;13.01;78.24;99140.84;8235071;28;20038;-56
2023/01/08 12:28:10;;;;;;;0.32;0.30;;;;;;;13.09;79.04;99122.59;8349296;28;20723;-56
2023/01/08 12:32:35;;;;;;;1.88;0.40;;;;;;;13.36;77.95;99123.75;8318532;28;20038;-55
2023/01/08 12:36:40;;;;;;;2.58;0.60;;;;;;;13.45;77.48;99125.31;8302294;28;20485;-54
2023/01/08 12:40:47;;;;;;;0.77;0.35;;;;;;;13.31;78.02;99127.03;8310800;28;20034;-54
2023/01/08 12:44:48;;;;;;;1.33;0.30;;;;;;;13.24;78.79;99128.81;8307570;28;20351;-56
2023/01/08 12:48:51;;;;;;;0.85;0.30;;;;;;;13.59;76.08;99124.41;8308564;28;20152;-51
2023/01/08 12:53:02;;;;;;;0.30;0.30;;;;;;;13.41;77.02;99127.56;8305172;28;20037;-53
2023/01/08 13:01:46;;;;;;;0.32;0.20;;;;;;;13.27;74.03;99117.56;8327019;27;20393;-52
2023/01/08 13:05:47;;;;;;;1.10;0.10;;;;;;;13.31;73.36;99126.19;8297003;28;20049;-54
2023/01/08 13:10:18;;;;;;;0.88;0.20;;;;;;;13.04;74.02;99118.75;8298264;28;20057;-54
2023/01/08 13:14:19;;;;;;;0.55;0.30;;;;;;;12.89;74.91;99094.34;8305255;28;20095;-53
2023/01/08 13:18:20;;;;;;;1.58;0.30;;;;;;;12.80;75.98;99089.22;8333032;28;20350;-55
2023/01/08 13:22:25;;;;;;;0.52;0.22;;;;;;;12.80;75.85;99090.06;8326578;28;20073;-53
2023/01/08 13:26:30;;;;;;;;;;;;;;;12.80;76.68;99092.78;8331568;28;20092;-55
2023/01/08 13:30:37;;;;;;;0.50;0.22;;;;;;;12.84;77.00;99091.34;8318309;28;19928;-55
2023/01/08 13:34:41;;;;;;;0.45;0.30;;;;;;;12.89;76.66;99082.66;8312657;28;20580;-56
2023/01/08 13:38:42;;;;;;;0.40;0.25;;;;;;;12.96;75.25;99070.03;8321137;28;20050;-54
2023/01/08 13:42:43;;;;;;;0.63;0.35;;;;;;;12.96;75.20;99060.00;8281370;28;20073;-56
2023/01/08 13:46:53;;;;;;;1.75;0.40;;;;;;;12.79;74.65;99049.56;8301259;28;20410;-56
2023/01/08 13:50:53;;;;;;;2.78;0.30;;;;;;;12.88;74.29;99059.28;8319272;28;20450;-57
2023/01/08 13:54:54;;;;;;;0.75;0.30;;;;;;;12.81;74.66;99063.78;8319225;28;20033;-55
2023/01/08 13:58:55;;;;;;;1.35;0.30;;;;;;;12.77;75.46;99057.06;8310403;28;20091;-56
2023/01/08 14:02:55;;;;;;;1.33;0.50;;;;;;;12.66;76.60;99044.00;8341462;28;20056;-56
2023/01/08 14:07:12;;;;;;;0.90;0.30;;;;;;;12.53;76.47;99039.25;8314864;28;20045;-54
2023/01/08 14:11:13;;;;;;;3.42;0.60;;;;;;;12.47;76.31;99025.63;8298697;28;20161;-54
2023/01/08 14:15:21;;;;;;;1.33;0.40;;;;;;;12.30;77.58;99038.53;8288340;28;20042;-57
2023/01/08 14:19:24;;;;;;;2.33;0.47;;;;;;;12.34;77.57;99028.97;8289600;28;20132;-56
2023/01/08 14:23:29;;;;;;;2.35;0.38;;;;;;;12.50;77.54;99022.53;8290602;28;20273;-53
2023/01/08 14:27:30;;;;;;;1.20;0.38;;;;;;;12.60;77.03;99017.66;8291966;28;20479;-54
2023/01/08 14:31:31;;;;;;;0.57;0.30;;;;;;;12.54;77.50;99007.56;8290444;28;20052;-54
2023/01/08 14:35:33;;;;;;;1.52;0.40;;;;;;;12.43;77.85;99016.16;8287393;28;20524;-54
2023/01/08 14:39:37;;;;;;;1.35;0.40;;;;;;;12.37;78.13;99006.94;8263615;28;20042;-54
2023/01/08 14:43:41;;;;;;;1.25;0.40;;;;;;;12.27;78.76;99005.53;8289629;28;20042;-55
2023/01/08 14:47:44;;;;;;;2.50;1.27;;;;;;;12.29;78.01;98995.38;8291517;28;20045;-53
2023/01/08 14:51:45;;;;;;;4.13;0.50;;;;;;;12.20;78.61;98999.19;8291170;28;20128;-54
2023/01/08 14:55:48;;;;;;;3.22;0.52;;;;;;;12.20;78.15;98999.19;8290159;28;20038;-53
2023/01/08 14:59:53;;;;;;;1.52;0.40;;;;;;;12.13;78.84;99001.00;8297834;28;20148;-54
2023/01/08 15:04:16;;;;;;;0.60;0.30;;;;;;;12.05;77.96;99003.78;8285773;28;20042;-52
2023/01/08 15:08:37;;;;;;;1.10;0.30;;;;;;;11.96;77.74;98997.63;8271591;28;20038;-53
2023/01/08 15:12:38;;;;;;;1.98;0.40;;;;;;;11.90;77.58;98999.19;8253815;28;20112;-54
2023/01/08 15:16:41;;;;;;;2.00;0.30;;;;;;;11.86;77.77;98992.47;8258343;28;20047;-54
2023/01/08 15:20:43;;;;;;;2.07;0.30;;;;;;;11.76;77.32;98991.06;8285032;28;20121;-55
2023/01/08 15:24:54;;;;;;;2.85;0.57;;;;;;;11.73;77.10;98976.03;8283570;28;20045;-56
2023/01/08 15:28:59;;;;;;;1.95;0.57;;;;;;;11.66;77.21;98990.50;8287921;28;20050;-58
2023/01/08 15:33:15;;;;;;;1.45;0.50;;;;;;;11.47;78.19;98981.00;8289074;28;20125;-56
2023/01/08 15:37:15;;;;;;;1.73;0.80;;;;;;;11.43;78.22;98987.81;8285415;28;20061;-55
2023/01/08 15:45:42;;;;;;;2.33;0.63;;;;;;;11.30;78.87;98990.31;8290087;28;20132;-59
2023/01/08 15:49:42;;;;;;;1.03;0.50;;;;;;;11.13;79.83;98979.81;8289096;28;20082;-58
2023/01/08 15:53:43;;;;;;;3.42;0.43;;;;;;;11.01;80.42;98979.38;8289907;28;20078;-55
2023/01/08 15:57:43;;;;;;;3.58;0.60;;;;;;;10.97;80.42;98978.06;8288944;28;20045;-58
2023/01/08 16:01:44;;;;;;;2.60;0.40;;;;;;;10.95;80.62;98977.38;8282654;28;20041;-57
2023/01/08 16:05:44;;;;;;;0.30;0.30;;;;;;;10.86;80.95;98975.75;8274475;28;20099;-59
2023/01/08 16:09:45;;;;;;;3.45;0.70;;;;;;;10.71;81.26;98982.13;8290032;28;20053;-57
2023/01/08 16:13:45;;;;;;;1.58;0.55;;;;;;;10.55;82.29;98977.66;8278123;28;20503;-58
2023/01/08 16:17:46;;;;;;;0.82;0.30;;;;;;;10.47;82.56;98980.44;8284912;28;20042;-55
2023/01/08 16:21:48;;;;;;;2.72;0.40;;;;;;;10.50;82.48;98973.81;8298963;28;20502;-55
2023/01/08 16:25:49;;;;;;;2.35;0.50;;;;;;;10.42;83.10;98972.00;8283013;28;20042;-56
2023/01/08 16:29:49;;;;;;;1.02;0.45;;;;;;;10.46;82.90;98970.63;8274353;28;20060;-58
2023/01/08 16:33:50;;;;;;;2.85;0.30;;;;;;;10.39;83.39;98966.09;8272989;28;20053;-59
2023/01/08 16:37:50;;;;;;;2.17;0.73;;;;;;;10.25;83.99;98956.91;8286151;28;20053;-57
2023/01/08 16:41:51;;;;;;;2.75;0.60;;;;;;;10.14;85.13;98946.50;8285602;28;20042;-58
2023/01/08 16:45:51;;;;;;;1.42;0.30;;;;;;;10.16;85.26;98952.56;8276584;28;20602;-58
2023/01/08 16:49:51;;;;;;;1.38;0.50;;;;;;;10.07;85.80;98950.06;8268649;28;20447;-59
2023/01/08 16:53:52;;;;;;;2.97;0.70;;;;;;;10.07;85.76;98940.13;8282809;28;20439;-59
2023/01/08 16:57:52;;;;;;;1.60;0.60;;;;;;;9.95;86.57;98946.91;8283758;28;20528;-57
2023/01/08 17:01:53;;;;;;;3.53;1.20;;;;;;;9.68;87.53;98923.03;8286011;28;20550;-59
2023/01/08 17:05:58;;;;;;;2.90;1.73;;;;;;;9.38;90.04;98923.78;8283837;28;20054;-57
2023/01/08 17:09:59;;;;;;;7.40;1.33;;;;;;;9.32;90.88;98927.19;8271041;28;20042;-53
2023/01/08 17:13:59;;;;;;;2.97;0.60;;;;;;;9.69;89.58;98919.31;8282479;28;20128;-57
2023/01/08 17:18:00;;;;;;;2.58;0.40;;;;;;;10.05;87.61;98909.72;8286010;28;20069;-58
2023/01/08 17:22:00;;;;;;;3.10;0.70;;;;;;;10.20;86.08;98902.59;8285105;28;20065;-59
2023/01/08 17:26:05;;;;;;;5.55;0.85;;;;;;;10.16;86.65;98909.38;8283437;28;20041;-58
2023/01/08 17:30:08;;;;;;;3.40;1.30;;;;;;;10.11;86.90;98903.66;8280392;28;20038;-51
2023/01/08 17:34:12;;;;;;;1.90;0.70;;;;;;;9.96;87.77;98897.28;8289800;28;20089;-59
2023/01/08 17:38:13;;;;;;;;;;;;;;;9.82;88.24;98892.63;8283208;28;20411;-58
2023/01/08 17:42:28;;;;;;;6.20;1.58;;;;;;;9.68;88.62;98890.66;8283804;28;19918;-52
2023/01/08 17:46:29;;;;;;;1.85;1.20;;;;;;;9.49;90.15;98882.97;8283390;28;20475;-56
2023/01/08 17:50:29;;;;;;;2.50;1.20;;;;;;;9.24;90.79;98878.69;8291037;28;20034;-54
2023/01/08 17:54:30;;;;;;;3.55;1.65;;;;;;;9.01;92.70;98865.06;8290651;28;20103;-54
2023/01/08 17:58:30;;;;;;;4.45;2.38;;;;;;;8.94;93.27;98860.53;8290901;28;20068;-54
2023/01/08 18:02:31;;;;;;;4.80;2.63;;;;;;;8.92;94.13;98870.63;8288613;28;20037;-54
2023/01/08 18:06:31;;;;;;;6.07;2.50;;;;;;;8.83;94.28;98861.72;8267287;28;20042;-53
2023/01/08 18:10:31;;;;;;;5.82;2.65;;;;;;;8.79;95.22;98848.75;8281931;28;20041;-52
2023/01/08 18:14:34;;;;;;;6.03;3.40;;;;;;;8.76;95.57;98849.09;8292128;28;20042;-52
2023/01/08 18:18:36;;;;;;;8.07;4.20;;;;;;;8.76;95.68;98849.09;8291985;28;20046;-52
2023/01/08 18:22:36;;;;;;;8.00;4.10;;;;;;;8.74;95.75;98845.72;8303755;28;20196;-53
2023/01/08 18:26:37;;;;;;;5.90;3.03;;;;;;;8.68;96.25;98838.31;8291148;28;20394;-51
2023/01/08 18:30:37;;;;;;;7.40;3.25;;;;;;;8.57;97.28;98844.06;8283218;28;20136;-53
2023/01/08 18:34:38;;;;;;;37.97;13.15;;;;;;;8.58;97.35;98840.34;8272036;28;20045;-53
2023/01/08 18:38:41;;;;;;;9.27;2.60;;;;;;;8.44;98.65;98838.31;8291381;28;20046;-51
2023/01/08 18:42:41;;;;;;;4.78;2.33;;;;;;;8.54;98.18;98829.06;8283901;28;20188;-53
2023/01/08 18:46:42;;;;;;;6.68;2.35;;;;;;;8.72;97.94;98824.34;8283078;28;20153;-53
2023/01/08 18:50:42;;;;;;;5.13;1.92;;;;;;;8.96;97.01;98818.06;8292184;28;20065;-55
2023/01/08 18:54:43;;;;;;;3.83;1.88;;;;;;;9.14;96.48;98816.00;8289687;28;20045;-53
2023/01/08 18:58:43;;;;;;;4.00;2.30;;;;;;;9.21;95.71;98807.06;8285503;28;20225;-52
2023/01/08 19:02:44;;;;;;;10.70;3.25;;;;;;;9.27;95.38;98800.97;8286580;28;20125;-54
2023/01/08 19:06:44;;;;;;;7.35;2.67;;;;;;;9.28;95.39;98791.88;8291310;28;20474;-56
2023/01/08 19:10:45;;;;;;;4.75;2.58;;;;;;;9.18;95.39;98788.53;8278508;28;20495;-56
2023/01/08 19:14:46;;;;;;;7.43;2.58;;;;;;;9.15;95.97;98782.66;8276374;28;20460;-55
2023/01/08 19:18:47;;;;;;;4.13;2.25;;;;;;;9.12;96.33;98783.00;8306736;28;20495;-54
2023/01/08 19:22:47;;;;;;;6.25;2.40;;;;;;;9.09;95.95;98769.88;8267297;28;20634;-56
2023/01/08 19:26:49;;;;;;;5.10;2.13;;;;;;;9.12;96.35;98756.06;8267381;28;20043;-55
2023/01/08 19:30:54;;;;;;;4.80;2.00;;;;;;;9.12;96.17;98753.34;8270084;28;20511;-56